Terminal Aerodrome Forecast
Issued by NWS

Home | Current Version | Previous Version | Text Only | Print | Product List | Glossary On
Versions: 1 2 3 4 5 6 7 8 9 10 11 12 13 14
000
FTUS42 KTAE 242325
TAFECP
TAF
KECP 242325Z 2500/2524 16005KT P6SM SCT070
     FM251200 12004KT P6SM BKN025
     FM251500 15013G23KT P6SM BKN050=

USA.gov is the U.S. government's official web portal to all federal, state and local government web resources and services.